createdAt,value
2022-09-22T00:02:16.289Z,8.60
2022-09-22T00:04:46.308Z,6.55
2022-09-22T00:07:16.154Z,5.30
2022-09-22T00:09:44.824Z,6.45
2022-09-22T00:12:13.318Z,5.07
2022-09-22T00:14:44.342Z,6.28
2022-09-22T00:17:13.895Z,6.15
2022-09-22T00:19:42.777Z,6.55
2022-09-22T00:22:13.503Z,7.40
2022-09-22T00:24:45.679Z,5.18
2022-09-22T00:27:14.412Z,6.82
2022-09-22T00:29:44.980Z,6.40
2022-09-22T00:32:15.798Z,7.63
2022-09-22T00:34:46.164Z,5.03
2022-09-22T00:37:16.364Z,6.45
2022-09-22T00:39:46.481Z,5.22
2022-09-22T00:42:16.106Z,6.75
2022-09-22T00:44:46.048Z,4.40
2022-09-22T00:47:24.431Z,6.70
2022-09-22T00:49:58.764Z,5.20
2022-09-22T00:52:31.643Z,5.20
2022-09-22T00:55:05.161Z,6.15
2022-09-22T00:57:37.313Z,6.72
2022-09-22T01:00:10.516Z,4.78
2022-09-22T01:02:39.459Z,6.80
2022-09-22T01:05:10.535Z,5.47
2022-09-22T01:07:39.208Z,4.10
2022-09-22T01:10:13.904Z,6.72
2022-09-22T01:12:51.497Z,5.00
2022-09-22T01:15:33.911Z,5.13
2022-09-22T01:18:13.982Z,5.57
2022-09-22T01:21:14.339Z,5.82
2022-09-22T01:24:18.387Z,7.13
2022-09-22T01:27:07.918Z,7.22
2022-09-22T01:30:13.503Z,6.90
2022-09-22T01:32:56.278Z,8.05
2022-09-22T01:35:34.305Z,5.88
2022-09-22T01:38:13.109Z,6.00
2022-09-22T01:40:48.351Z,6.45
2022-09-22T01:43:24.756Z,7.35
2022-09-22T01:45:56.147Z,6.22
2022-09-22T01:48:33.986Z,5.53
2022-09-22T01:51:08.533Z,6.00
2022-09-22T01:53:42.227Z,5.45
2022-09-22T01:56:17.021Z,6.57
2022-09-22T01:58:50.703Z,5.22
2022-09-22T02:01:21.598Z,4.88
2022-09-22T02:03:56.832Z,6.05
2022-09-22T02:06:35.554Z,5.60
2022-09-22T02:09:07.546Z,5.88
2022-09-22T02:11:36.603Z,5.55
2022-09-22T02:14:06.715Z,7.28
2022-09-22T02:16:46.174Z,7.10
2022-09-22T02:19:24.738Z,5.70
2022-09-22T02:21:54.379Z,6.38
2022-09-22T02:24:34.524Z,5.28
2022-09-22T02:27:07.093Z,5.28
2022-09-22T02:29:39.577Z,9.27
2022-09-22T02:32:13.104Z,4.80
2022-09-22T02:34:43.275Z,4.22
2022-09-22T02:37:23.044Z,5.00
2022-09-22T02:40:05.356Z,5.95
2022-09-22T02:42:39.377Z,6.13
2022-09-22T02:45:14.237Z,6.30
2022-09-22T02:47:53.008Z,5.78
2022-09-22T02:50:25.548Z,5.78
2022-09-22T02:53:01.897Z,6.32
2022-09-22T02:55:30.636Z,8.10
2022-09-22T02:57:59.368Z,6.45
2022-09-22T03:00:28.859Z,7.18
2022-09-22T03:02:57.530Z,6.15
2022-09-22T03:05:27.982Z,8.43
2022-09-22T03:07:58.876Z,4.57
2022-09-22T03:10:28.500Z,5.88
2022-09-22T03:13:15.386Z,6.53
2022-09-22T03:15:46.464Z,6.07
2022-09-22T03:18:15.494Z,7.80
2022-09-22T03:20:47.147Z,7.82
2022-09-22T03:23:15.959Z,7.97
2022-09-22T03:25:44.664Z,7.03
2022-09-22T03:28:14.930Z,7.35
2022-09-22T03:30:43.584Z,9.77
2022-09-22T03:33:15.091Z,12.07
2022-09-22T03:35:44.692Z,8.63
2022-09-22T03:38:15.691Z,7.25
2022-09-22T03:40:54.948Z,7.00
2022-09-22T03:43:25.012Z,6.30
2022-09-22T03:45:58.562Z,9.10
2022-09-22T03:48:30.349Z,5.30
2022-09-22T03:51:03.522Z,4.80
2022-09-22T03:56:07.127Z,6.13
2022-09-22T03:58:37.588Z,5.55
2022-09-22T04:01:08.263Z,6.05
2022-09-22T04:03:36.969Z,7.70
2022-09-22T04:06:10.116Z,6.05
2022-09-22T04:11:10.088Z,6.60
2022-09-22T04:13:42.721Z,8.23
2022-09-22T04:16:15.122Z,6.78
2022-09-22T04:18:46.824Z,7.88
2022-09-22T04:21:18.273Z,7.57
2022-09-22T04:23:49.307Z,7.45
2022-09-22T04:26:18.104Z,7.35
2022-09-22T04:28:46.446Z,5.88
2022-09-22T04:31:14.644Z,8.63
2022-09-22T04:33:44.177Z,5.57
2022-09-22T04:36:15.815Z,7.47
2022-09-22T04:38:48.307Z,8.38
2022-09-22T04:41:20.536Z,7.72
2022-09-22T04:43:49.460Z,6.70
2022-09-22T04:46:19.914Z,7.13
2022-09-22T04:48:48.847Z,7.68
2022-09-22T04:51:17.728Z,5.88
2022-09-22T04:53:47.951Z,8.50
2022-09-22T04:56:19.121Z,5.35
2022-09-22T04:58:47.306Z,5.50
2022-09-22T05:01:19.452Z,5.97
2022-09-22T05:03:48.303Z,5.53
2022-09-22T05:06:18.661Z,6.30
2022-09-22T05:08:48.202Z,6.50
2022-09-22T05:11:19.311Z,5.75
2022-09-22T05:13:47.933Z,8.48
2022-09-22T05:16:30.403Z,8.63
2022-09-22T05:18:59.603Z,6.63
2022-09-22T05:21:28.960Z,12.93
2022-09-22T05:24:00.943Z,9.57
2022-09-22T05:26:34.438Z,9.27
2022-09-22T05:29:03.944Z,8.50
2022-09-22T05:31:33.549Z,8.38
2022-09-22T05:34:02.597Z,10.93
2022-09-22T05:36:30.712Z,9.18
2022-09-22T05:39:01.641Z,9.73
2022-09-22T05:41:32.310Z,7.90
2022-09-22T05:44:02.813Z,8.57
2022-09-22T05:46:32.619Z,11.00
2022-09-22T05:49:03.176Z,11.25
2022-09-22T05:51:36.875Z,11.30
2022-09-22T05:54:07.048Z,9.60
2022-09-22T05:56:37.615Z,13.18
2022-09-22T05:59:06.039Z,10.18
2022-09-22T06:01:35.996Z,11.98
2022-09-22T06:04:04.884Z,10.35
2022-09-22T06:06:48.504Z,10.10
2022-09-22T06:09:19.973Z,11.65
2022-09-22T06:11:51.394Z,12.68
2022-09-22T06:14:20.156Z,9.75
2022-09-22T06:16:48.748Z,14.63
2022-09-22T06:19:18.232Z,11.10
2022-09-22T06:21:48.339Z,18.42
2022-09-22T06:24:18.763Z,18.98
2022-09-22T06:26:47.259Z,15.50
2022-09-22T06:29:18.338Z,12.98
2022-09-22T06:31:49.018Z,15.30
2022-09-22T06:34:20.870Z,15.30
2022-09-22T06:36:49.383Z,13.95
2022-09-22T06:39:20.091Z,16.05
2022-09-22T06:41:51.323Z,10.38
2022-09-22T06:44:21.594Z,13.43
2022-09-22T06:46:50.361Z,11.90
2022-09-22T06:49:19.265Z,11.90
2022-09-22T06:51:49.870Z,12.18
2022-09-22T06:54:22.710Z,10.30
2022-09-22T06:56:56.698Z,10.23
2022-09-22T06:59:25.308Z,10.13
2022-09-22T07:01:55.539Z,10.68
2022-09-22T07:04:23.885Z,8.57
2022-09-22T07:06:52.680Z,10.88
2022-09-22T07:09:22.774Z,9.27
2022-09-22T07:11:52.333Z,13.10
2022-09-22T07:14:24.589Z,10.98
2022-09-22T07:16:55.545Z,11.77
2022-09-22T07:19:30.065Z,11.15
2022-09-22T07:21:59.881Z,9.80
2022-09-22T07:24:32.097Z,12.57
2022-09-22T07:27:04.563Z,12.83
2022-09-22T07:29:34.313Z,10.13
2022-09-22T07:32:05.975Z,9.55
2022-09-22T07:34:34.206Z,11.25
2022-09-22T07:37:06.184Z,13.38
2022-09-22T07:39:37.083Z,9.13
2022-09-22T07:42:05.774Z,10.52
2022-09-22T07:44:55.082Z,11.32
2022-09-22T07:48:02.804Z,9.07
2022-09-22T07:50:44.870Z,10.55
2022-09-22T07:53:44.986Z,10.68
2022-09-22T07:56:29.252Z,10.18
2022-09-22T07:59:13.680Z,9.30
2022-09-22T08:01:51.382Z,9.80
2022-09-22T08:04:34.318Z,10.23
2022-09-22T08:07:02.863Z,9.23
2022-09-22T08:09:34.647Z,10.95
2022-09-22T08:12:06.164Z,9.68
2022-09-22T08:14:35.647Z,8.43
2022-09-22T08:17:09.806Z,12.07
2022-09-22T08:19:40.772Z,8.90
2022-09-22T08:22:12.884Z,9.80
2022-09-22T08:24:47.478Z,8.70
2022-09-22T08:27:19.469Z,10.50
2022-09-22T08:29:48.130Z,9.57
2022-09-22T08:32:17.516Z,12.02
2022-09-22T08:34:49.138Z,15.07
2022-09-22T08:37:50.505Z,9.90
2022-09-22T08:40:30.823Z,9.40
2022-09-22T08:43:20.184Z,8.98
2022-09-22T08:45:52.274Z,10.23
2022-09-22T08:48:44.898Z,9.07
2022-09-22T08:51:43.813Z,11.73
2022-09-22T08:54:14.994Z,9.35
2022-09-22T08:56:48.297Z,8.50
2022-09-22T08:59:23.298Z,9.13
2022-09-22T09:02:19.349Z,8.27
2022-09-22T09:05:35.156Z,8.98
2022-09-22T09:08:13.033Z,7.68
2022-09-22T09:10:54.580Z,9.45
2022-09-22T09:13:38.479Z,8.27
2022-09-22T09:16:25.973Z,8.35
2022-09-22T09:19:01.439Z,6.57
2022-09-22T09:21:35.062Z,5.60
2022-09-22T09:27:08.952Z,5.93
2022-09-22T09:29:44.596Z,5.05
2022-09-22T09:32:24.918Z,5.60
2022-09-22T09:34:55.840Z,5.93
2022-09-22T09:37:24.900Z,6.35
2022-09-22T09:39:55.336Z,5.43
2022-09-22T09:42:29.184Z,5.55
2022-09-22T09:45:02.787Z,5.30
2022-09-22T09:47:50.290Z,6.47
2022-09-22T09:50:27.543Z,5.05
2022-09-22T09:53:00.837Z,6.20
2022-09-22T09:55:29.736Z,4.82
2022-09-22T09:58:07.868Z,4.43
2022-09-22T10:00:55.939Z,6.25
2022-09-22T10:03:33.761Z,4.65
2022-09-22T10:06:07.944Z,5.63
2022-09-22T10:08:45.386Z,5.10
2022-09-22T10:11:15.195Z,4.18
2022-09-22T10:13:46.110Z,3.90
2022-09-22T10:16:36.043Z,6.47
2022-09-22T10:19:23.547Z,5.35
2022-09-22T10:21:53.494Z,4.22
2022-09-22T10:24:31.918Z,5.30
2022-09-22T10:27:03.904Z,4.38
2022-09-22T10:29:36.507Z,4.78
2022-09-22T10:32:16.631Z,4.57
2022-09-22T10:34:48.477Z,5.03
2022-09-22T10:37:22.387Z,6.60
2022-09-22T10:39:52.879Z,3.72
2022-09-22T10:42:32.920Z,3.42
2022-09-22T10:45:07.131Z,2.83
2022-09-22T10:47:47.974Z,3.13
2022-09-22T10:50:57.787Z,3.40
2022-09-22T10:53:39.752Z,2.78
2022-09-22T10:56:19.518Z,2.40
2022-09-22T10:59:23.943Z,2.80
2022-09-22T11:02:09.225Z,5.18
2022-09-22T11:04:47.715Z,2.47
2022-09-22T11:07:50.867Z,2.70
2022-09-22T11:10:47.544Z,3.50
2022-09-22T11:13:28.811Z,2.38
2022-09-22T11:16:15.032Z,3.20
2022-09-22T11:19:02.244Z,3.67
2022-09-22T11:21:47.575Z,2.80
2022-09-22T11:24:41.014Z,2.40
2022-09-22T11:30:11.329Z,3.13
2022-09-22T11:33:03.198Z,2.78
2022-09-22T11:35:52.161Z,5.32
2022-09-22T11:38:42.330Z,1.73
2022-09-22T11:41:28.144Z,2.13
2022-09-22T11:44:26.383Z,1.23
2022-09-22T11:47:14.807Z,2.83
2022-09-22T11:49:59.949Z,2.92
2022-09-22T11:52:35.544Z,1.77
2022-09-22T11:55:20.374Z,2.60
2022-09-22T11:57:55.816Z,2.38
2022-09-22T12:00:24.435Z,2.38
2022-09-22T12:03:02.033Z,1.65
2022-09-22T12:05:39.901Z,1.67
2022-09-22T12:08:13.464Z,1.75
2022-09-22T12:10:45.245Z,1.75
2022-09-22T12:13:21.470Z,2.00
2022-09-22T12:18:41.931Z,1.65
2022-09-22T12:21:24.452Z,1.55
2022-09-22T12:23:54.493Z,1.65
2022-09-22T12:26:32.619Z,1.88
2022-09-22T12:29:06.219Z,0.95
2022-09-22T12:31:38.049Z,5.43
2022-09-22T12:34:16.503Z,6.20
2022-09-22T12:36:45.326Z,5.45
2022-09-22T12:39:19.946Z,5.68
2022-09-22T12:41:50.028Z,1.83
2022-09-22T12:44:24.543Z,2.42
2022-09-22T12:46:57.225Z,3.17
2022-09-22T12:49:26.504Z,2.28
2022-09-22T12:51:55.509Z,1.40
2022-09-22T12:54:47.189Z,2.83
2022-09-22T12:57:47.050Z,2.03
2022-09-22T13:00:33.053Z,3.03
2022-09-22T13:03:05.275Z,1.60
2022-09-22T13:05:45.551Z,3.38
2022-09-22T13:08:25.645Z,1.67
2022-09-22T13:10:57.094Z,3.58
2022-09-22T13:13:40.555Z,1.88
2022-09-22T13:16:36.973Z,1.52
2022-09-22T13:19:14.934Z,3.17
2022-09-22T13:21:43.262Z,2.33
2022-09-22T13:24:34.376Z,1.92
2022-09-22T13:27:06.553Z,1.85
2022-09-22T13:29:39.672Z,2.27
2022-09-22T13:32:27.135Z,1.30
2022-09-22T13:34:55.870Z,1.95
2022-09-22T13:37:26.283Z,1.52
2022-09-22T13:39:57.250Z,2.05
2022-09-22T13:42:31.648Z,2.10
2022-09-22T13:45:04.070Z,2.78
2022-09-22T13:47:36.077Z,1.48
2022-09-22T13:50:11.535Z,2.30
2022-09-22T13:52:43.957Z,1.85
2022-09-22T13:55:22.152Z,1.08
2022-09-22T13:57:59.289Z,4.03
2022-09-22T14:01:12.058Z,3.05
2022-09-22T14:03:40.886Z,1.33
2022-09-22T14:06:23.213Z,1.63
2022-09-22T14:08:54.002Z,1.40
2022-09-22T14:11:27.117Z,1.58
2022-09-22T14:14:07.740Z,1.38
2022-09-22T14:17:02.597Z,2.00
2022-09-22T14:19:37.669Z,1.98
2022-09-22T14:22:09.521Z,2.15
2022-09-22T14:24:38.651Z,3.17
2022-09-22T14:27:08.889Z,1.75
2022-09-22T14:29:42.975Z,1.77
2022-09-22T14:32:16.633Z,1.85
2022-09-22T14:34:59.107Z,1.30
2022-09-22T14:37:32.416Z,2.20
2022-09-22T14:40:03.867Z,2.08
2022-09-22T14:42:38.047Z,2.83
2022-09-22T14:45:21.845Z,2.17
2022-09-22T14:48:17.137Z,1.98
2022-09-22T14:50:51.268Z,2.08
2022-09-22T14:53:24.190Z,2.45
2022-09-22T14:55:58.685Z,2.20
2022-09-22T14:58:29.831Z,2.00
2022-09-22T15:01:18.978Z,1.50
2022-09-22T15:03:56.914Z,2.78
2022-09-22T15:06:37.905Z,1.45
2022-09-22T15:09:08.685Z,2.88
2022-09-22T15:11:51.206Z,1.85
2022-09-22T15:14:42.477Z,1.80
2022-09-22T15:17:55.222Z,2.08
2022-09-22T15:20:28.992Z,1.85
2022-09-22T15:23:00.774Z,2.58
2022-09-22T15:25:32.168Z,1.10
2022-09-22T15:28:06.647Z,1.20
2022-09-22T15:30:35.006Z,0.82
2022-09-22T15:33:03.866Z,2.63
2022-09-22T15:35:38.489Z,2.67
2022-09-22T15:38:19.671Z,2.40
2022-09-22T15:41:06.181Z,2.17
2022-09-22T15:43:41.849Z,2.83
2022-09-22T15:46:32.308Z,1.42
2022-09-22T15:49:17.096Z,1.30
2022-09-22T15:51:51.053Z,1.88
2022-09-22T15:54:23.642Z,1.67
2022-09-22T15:59:40.323Z,3.40
2022-09-22T16:02:26.851Z,1.83
2022-09-22T16:05:04.530Z,2.20
2022-09-22T16:07:37.772Z,2.55
2022-09-22T16:10:18.787Z,2.20
2022-09-22T16:12:50.823Z,2.30
2022-09-22T16:15:20.466Z,2.53
2022-09-22T16:17:51.073Z,1.77
2022-09-22T16:20:20.719Z,2.88
2022-09-22T16:22:51.601Z,2.17
2022-09-22T16:25:23.220Z,1.90
2022-09-22T16:28:00.963Z,0.98
2022-09-22T16:30:31.469Z,3.10
2022-09-22T16:33:03.010Z,1.75
2022-09-22T16:35:34.100Z,1.67
2022-09-22T16:38:11.585Z,1.95
2022-09-22T16:41:28.864Z,2.17
2022-09-22T16:44:14.613Z,1.95
2022-09-22T16:46:49.236Z,1.65
2022-09-22T16:49:21.806Z,2.40
2022-09-22T16:51:51.574Z,1.73
2022-09-22T16:54:41.057Z,2.05
2022-09-22T16:58:10.403Z,1.73
2022-09-22T17:00:59.739Z,2.90
2022-09-22T17:03:46.612Z,2.10
2022-09-22T17:06:40.662Z,3.33
2022-09-22T17:09:16.298Z,2.67
2022-09-22T17:11:49.923Z,2.60
2022-09-22T17:14:27.881Z,2.63
2022-09-22T17:17:23.671Z,1.90
2022-09-22T17:20:02.698Z,2.80
2022-09-22T17:22:37.468Z,5.65
2022-09-22T17:28:29.207Z,3.10
2022-09-22T17:31:12.354Z,4.13
2022-09-22T17:33:52.654Z,3.47
2022-09-22T17:36:45.667Z,4.82
2022-09-22T17:39:19.955Z,3.13
2022-09-22T17:41:52.632Z,3.35
2022-09-22T17:44:37.084Z,3.13
2022-09-22T17:47:29.413Z,6.35
2022-09-22T17:50:30.761Z,4.78
2022-09-22T17:53:23.167Z,4.03
2022-09-22T17:56:13.004Z,4.43
2022-09-22T17:58:46.444Z,4.38
2022-09-22T18:01:26.418Z,5.88
2022-09-22T18:04:09.550Z,4.68
2022-09-22T18:07:11.122Z,6.05
2022-09-22T18:10:05.323Z,3.47
2022-09-22T18:12:56.337Z,4.70
2022-09-22T18:15:37.469Z,5.28
2022-09-22T18:21:40.185Z,5.50
2022-09-22T18:24:29.583Z,6.00
2022-09-22T18:30:26.870Z,10.20
2022-09-22T18:33:05.079Z,7.18
2022-09-22T18:36:28.019Z,6.80
2022-09-22T18:39:11.822Z,7.60
2022-09-22T18:41:47.687Z,6.93
2022-09-22T18:48:04.009Z,7.88
2022-09-22T18:50:47.557Z,9.48
2022-09-22T18:53:34.806Z,7.50
2022-09-22T18:56:16.352Z,13.90
2022-09-22T18:58:59.600Z,12.02
2022-09-22T19:01:41.323Z,18.40
2022-09-22T19:04:22.734Z,13.25
2022-09-22T19:07:25.040Z,11.88
2022-09-22T19:10:17.056Z,12.60
2022-09-22T19:13:00.969Z,8.88
2022-09-22T19:15:46.632Z,10.40
2022-09-22T19:18:44.125Z,10.90
2022-09-22T19:21:39.439Z,10.85
2022-09-22T19:24:13.706Z,10.68
2022-09-22T19:26:44.111Z,11.02
2022-09-22T19:29:33.213Z,9.85
2022-09-22T19:32:08.404Z,11.63
2022-09-22T19:34:37.593Z,12.73
2022-09-22T19:37:16.802Z,12.50
2022-09-22T19:39:50.618Z,11.18
2022-09-22T19:42:25.427Z,10.75
2022-09-22T19:44:55.343Z,12.05
2022-09-22T19:47:35.993Z,13.52
2022-09-22T19:50:18.336Z,11.20
2022-09-22T19:53:02.348Z,10.18
2022-09-22T19:55:49.480Z,9.00
2022-09-22T19:58:38.410Z,13.10
2022-09-22T20:01:22.350Z,8.93
2022-09-22T20:04:10.654Z,9.80
2022-09-22T20:07:01.892Z,12.32
2022-09-22T20:09:43.281Z,8.15
2022-09-22T20:15:32.580Z,10.50
2022-09-22T20:18:13.093Z,10.45
2022-09-22T20:20:58.324Z,7.72
2022-09-22T20:23:27.116Z,7.75
2022-09-22T20:26:01.912Z,9.73
2022-09-22T20:28:31.074Z,7.47
2022-09-22T20:31:02.552Z,7.05
2022-09-22T20:33:33.785Z,6.53
2022-09-22T20:36:07.805Z,7.18
2022-09-22T20:38:37.817Z,7.35
2022-09-22T20:41:15.967Z,6.13
2022-09-22T20:43:44.959Z,9.02
2022-09-22T20:46:16.886Z,7.72
2022-09-22T20:48:50.780Z,9.20
2022-09-22T20:51:23.251Z,8.07
2022-09-22T20:53:59.417Z,8.50
2022-09-22T20:56:46.417Z,7.10
2022-09-22T20:59:40.384Z,5.70
2022-09-22T21:02:17.676Z,7.63
2022-09-22T21:04:55.457Z,6.95
2022-09-22T21:07:32.673Z,9.63
2022-09-22T21:10:32.169Z,8.05
2022-09-22T21:13:25.606Z,8.50
2022-09-22T21:16:20.367Z,8.55
2022-09-22T21:19:05.312Z,9.15
2022-09-22T21:21:58.046Z,8.32
2022-09-22T21:25:07.645Z,11.73
2022-09-22T21:28:09.726Z,5.63
2022-09-22T21:31:06.801Z,7.18
2022-09-22T21:33:42.254Z,5.93
2022-09-22T21:39:31.794Z,7.95
2022-09-22T21:42:10.853Z,6.55
2022-09-22T21:44:47.868Z,5.97
2022-09-22T21:47:21.970Z,6.88
2022-09-22T21:49:52.104Z,6.72
2022-09-22T21:52:26.562Z,5.50
2022-09-22T21:55:01.571Z,6.60
2022-09-22T21:57:36.194Z,7.18
2022-09-22T22:00:28.032Z,7.00
2022-09-22T22:03:24.239Z,6.20
2022-09-22T22:06:02.107Z,6.45
2022-09-22T22:08:41.246Z,7.15
2022-09-22T22:11:33.696Z,7.80
2022-09-22T22:14:35.757Z,6.25
2022-09-22T22:20:14.691Z,9.57
2022-09-22T22:22:46.707Z,6.43
2022-09-22T22:28:11.422Z,8.15
2022-09-22T22:30:49.747Z,7.43
2022-09-22T22:33:23.025Z,6.43
2022-09-22T22:36:01.430Z,6.43
2022-09-22T22:38:48.034Z,5.68
2022-09-22T22:44:19.333Z,6.38
2022-09-22T22:47:06.617Z,6.00
2022-09-22T22:52:28.384Z,7.13
2022-09-22T22:57:43.961Z,6.32
2022-09-22T23:00:22.895Z,7.85
2022-09-22T23:03:18.669Z,6.93
2022-09-22T23:06:06.582Z,8.13
2022-09-22T23:08:37.680Z,7.85
2022-09-22T23:11:29.305Z,9.48
2022-09-22T23:14:18.232Z,9.95
2022-09-22T23:16:55.615Z,7.53
2022-09-22T23:19:50.611Z,8.48
2022-09-22T23:22:21.625Z,7.35
2022-09-22T23:24:53.992Z,7.85
2022-09-22T23:27:23.327Z,9.73
2022-09-22T23:29:57.897Z,7.60
2022-09-22T23:32:27.919Z,7.82
2022-09-22T23:35:03.889Z,7.13
2022-09-22T23:37:38.929Z,7.53
2022-09-22T23:40:12.302Z,8.23
2022-09-22T23:42:57.888Z,9.45
2022-09-22T23:45:32.836Z,8.70
2022-09-22T23:51:01.145Z,9.40
2022-09-22T23:53:47.181Z,6.90
2022-09-22T23:56:18.528Z,8.30
2022-09-22T23:58:47.733Z,8.20
